METAR Data
IDs: Format: Raw Decoded Include TAF

Data at: 0853 UTC 20 Sep 2018

KTVC 200753Z AUTO 00000KT 9SM FEW023 OVC055 17/16 A3005 RMK AO2 RAB03E30 SLP173 P0001 T01720161
KTVC 200722Z AUTO 00000KT 7SM -RA SCT020 OVC055 17/16 A3005 RMK AO2 RAB03 P0001 T01720161
KTVC 200653Z AUTO 00000KT 10SM OVC024 17/16 A3006 RMK AO2 SLP179 T01720161
KTVC 200553Z AUTO 08003KT 9SM OVC017 17/16 A3005 RMK AO2 RAB0455E21 SLP174 P0000 60003 T01720161 10178 20167 58006
KTVC 200519Z AUTO 00000KT 8SM -RA FEW011 BKN018 OVC041 17/16 A3006 RMK AO2 RAB0455 P0000 T01670156
KTVC 200453Z AUTO 11003KT 10SM FEW020 OVC041 17/16 A3007 RMK AO2 RAB26E53 SLP181 P0003 T01670156 401940144
KTVC 200411Z AUTO 10003KT 10SM FEW014 BKN060 OVC080 17/16 A3006 RMK AO2 T01670156
KTVC 200353Z AUTO 09003KT 10SM BKN014 OVC070 17/16 A3005 RMK AO2 RAE0258B42E53 SLP177 P0000 T01720156
KTVC 200341Z AUTO 02003KT 10SM BKN014 OVC070 18/16 A3006 RMK AO2 RAE0258 P0000 T01780156
KTVC 200253Z AUTO 29004KT 10SM -RA BKN070 OVC095 17/15 A3007 RMK AO2 RAE0157B48 SLP182 P0000 60000 T01720150 53007
KTVC 200153Z 00000KT 10SM -RA SCT090 BKN120 17/14 A3004 RMK AO2 RAB45 SLP173 LAST P0000 T01670144
KTVC 200053Z 11004KT 10SM OVC100 17/13 A3003 RMK AO2 SLP170 T01720133
KTVC 192353Z 11003KT 10SM FEW090 SCT130 OVC170 17/13 A3005 RMK AO2 SLP174 T01720133 10194 20172 58005
KTVC 192253Z 00000KT 10SM FEW040 SCT090 OVC150 18/13 A3006 RMK AO2 SLP179 T01830128
KTVC 192153Z 03004KT 10SM SCT030 BKN110 OVC250 18/13 A3007 RMK AO2 SLP182 T01780128
KTVC 192053Z 03006KT 10SM FEW030 SCT120 OVC250 19/13 A3006 RMK AO2 SLP180 T01890128 58012
KTVC 191953Z 02006KT 10SM BKN030 OVC250 18/12 A3008 RMK AO2 SLP186 T01830122
KTVC 191853Z 35006KT 10SM SCT027 SCT140 OVC250 19/13 A3009 RMK AO2 SLP188 T01890128
KTVC 191753Z 36004KT 10SM BKN024 OVC110 18/12 A3010 RMK AO2 SLP191 T01780122 10178 20144 58003
KTVC 191653Z 36004KT 10SM OVC019 17/12 A3010 RMK AO2 SLP192 T01670117
KTVC 191553Z 00000KT 10SM OVC015 16/11 A3011 RMK AO2 SLP197 T01560111
KTVC 191453Z 00000KT 10SM OVC014 16/11 A3010 RMK AO2 SLP194 T01560106 53010
KTVC 191353Z 10004KT 10SM OVC014 15/11 A3007 RMK AO2 SLP184 T01500106
KTVC 191253Z 11006KT 10SM OVC014 14/11 A3006 RMK AO2 SLP180 T01440111
KTVC 191153Z 36006KT 10SM OVC014 15/11 A3007 RMK AO2 SLP184 T01500106 10161 20144 50013
KTVC 191139Z 02006KT 10SM OVC014 15/11 A3008 RMK AO2 T01500111
KTVC 191053Z 01004KT 10SM OVC016 15/11 A3008 RMK AO2 SLP187 T01500111
KTVC 190953Z AUTO 09003KT 10SM OVC016 14/11 A3006 RMK AO2 SLP180 T01440106
KTVC 190853Z AUTO 08005KT 10SM OVC018 14/11 A3003 RMK AO2 SLP170 T01440106 50003
KTVC 190753Z AUTO 35006KT 10SM OVC018 15/11 A3004 RMK AO2 SLP172 T01500106
KTVC 190653Z AUTO 01010KT 10SM OVC020 16/11 A3003 RMK AO2 SLP167 T01560111
KTVC 190553Z AUTO 01006KT 10SM OVC017 16/12 A3002 RMK AO2 SLP166 T01610122 10178 20161 50008
KTVC 190453Z AUTO 02009KT 10SM OVC019 17/13 A3003 RMK AO2 SLP166 T01670128 402060161
KTVC 190353Z AUTO 34007KT 10SM OVC022 17/13 A3002 RMK AO2 SLP163 T01720128
KTVC 190253Z AUTO 05004KT 10SM OVC022 17/12 A3000 RMK AO2 SLP157 T01720122 51011
KTVC 190153Z 35006KT 10SM OVC020 17/12 A3000 RMK AO2 SLP158 LAST T01720122
KTVC 190053Z 35004KT 10SM BKN019 BKN200 17/12 A2997 RMK AO2 SLP150 T01720122
KTVC 182353Z 36006KT 10SM BKN023 OVC200 17/12 A2997 RMK AO2 SLP147 T01720122 10206 20172 53001
KTVC 182253Z 02006KT 10SM SCT022 BKN030 BKN220 17/13 A2996 RMK AO2 SLP145 T01720128
KTVC 182153Z 33007KT 10SM SCT019 BKN032 OVC200 18/13 A2997 RMK AO2 SLP146 T01830133